sensor_id;sensor_type;location;lat;lon;timestamp;temperature;humidity
23591;DHT22;11973;52.098;7.582;2023-04-24T03:47:41;11.30;81.20
23591;DHT22;11973;52.098;7.582;2023-04-24T03:50:08;11.30;81.30
23591;DHT22;11973;52.098;7.582;2023-04-24T03:52:34;11.30;81.40
23591;DHT22;11973;52.098;7.582;2023-04-24T03:55:01;11.30;81.50
23591;DHT22;11973;52.098;7.582;2023-04-24T03:57:28;11.20;81.50
23591;DHT22;11973;52.098;7.582;2023-04-24T04:00:06;11.20;81.60
23591;DHT22;11973;52.098;7.582;2023-04-24T04:02:40;11.20;81.70
23591;DHT22;11973;52.098;7.582;2023-04-24T04:05:07;11.20;81.70
23591;DHT22;11973;52.098;7.582;2023-04-24T04:07:33;11.20;81.80
23591;DHT22;11973;52.098;7.582;2023-04-24T04:09:59;11.10;81.80
23591;DHT22;11973;52.098;7.582;2023-04-24T04:12:25;11.20;82.10
23591;DHT22;11973;52.098;7.582;2023-04-24T04:14:51;11.10;82.10
23591;DHT22;11973;52.098;7.582;2023-04-24T04:17:17;11.10;82.90
23591;DHT22;11973;52.098;7.582;2023-04-24T04:19:43;11.10;82.20
23591;DHT22;11973;52.098;7.582;2023-04-24T04:22:09;11.10;82.30
23591;DHT22;11973;52.098;7.582;2023-04-24T04:24:44;11.10;83.20
23591;DHT22;11973;52.098;7.582;2023-04-24T04:27:12;11.20;83.30
23591;DHT22;11973;52.098;7.582;2023-04-24T04:29:46;11.10;82.50
23591;DHT22;11973;52.098;7.582;2023-04-24T04:32:14;11.10;82.60
23591;DHT22;11973;52.098;7.582;2023-04-24T04:34:41;11.10;82.70
23591;DHT22;11973;52.098;7.582;2023-04-24T04:37:10;11.10;82.70
23591;DHT22;11973;52.098;7.582;2023-04-24T04:39:52;11.10;82.80
23591;DHT22;11973;52.098;7.582;2023-04-24T04:42:22;11.10;82.80
23591;DHT22;11973;52.098;7.582;2023-04-24T04:44:49;11.10;82.90
23591;DHT22;11973;52.098;7.582;2023-04-24T04:47:21;11.10;83.60
23591;DHT22;11973;52.098;7.582;2023-04-24T04:49:50;11.10;83.00
23591;DHT22;11973;52.098;7.582;2023-04-24T04:52:21;11.10;83.00
23591;DHT22;11973;52.098;7.582;2023-04-24T04:54:53;11.10;83.10
23591;DHT22;11973;52.098;7.582;2023-04-24T04:57:21;11.10;83.10
23591;DHT22;11973;52.098;7.582;2023-04-24T04:59:47;11.10;83.10
23591;DHT22;11973;52.098;7.582;2023-04-24T05:02:21;11.10;83.10
23591;DHT22;11973;52.098;7.582;2023-04-24T05:04:46;11.10;83.10
23591;DHT22;11973;52.098;7.582;2023-04-24T05:07:12;11.10;83.20
23591;DHT22;11973;52.098;7.582;2023-04-24T05:09:43;11.10;83.30
23591;DHT22;11973;52.098;7.582;2023-04-24T05:12:10;11.00;83.30
23591;DHT22;11973;52.098;7.582;2023-04-24T05:14:43;11.10;83.50
23591;DHT22;11973;52.098;7.582;2023-04-24T05:17:11;11.10;83.50
23591;DHT22;11973;52.098;7.582;2023-04-24T05:19:36;11.10;83.60
23591;DHT22;11973;52.098;7.582;2023-04-24T05:22:04;11.10;83.70
23591;DHT22;11973;52.098;7.582;2023-04-24T05:24:35;11.10;83.70
23591;DHT22;11973;52.098;7.582;2023-04-24T05:27:24;11.10;83.70
23591;DHT22;11973;52.098;7.582;2023-04-24T05:29:50;11.10;83.70
23591;DHT22;11973;52.098;7.582;2023-04-24T05:32:17;11.10;83.80
23591;DHT22;11973;52.098;7.582;2023-04-24T05:34:44;11.20;83.90
23591;DHT22;11973;52.098;7.582;2023-04-24T05:37:09;11.20;83.90
23591;DHT22;11973;52.098;7.582;2023-04-24T05:39:36;11.20;83.90
23591;DHT22;11973;52.098;7.582;2023-04-24T05:42:02;11.30;83.90
23591;DHT22;11973;52.098;7.582;2023-04-24T05:44:30;11.30;83.90
23591;DHT22;11973;52.098;7.582;2023-04-24T05:46:55;11.50;84.10
23591;DHT22;11973;52.098;7.582;2023-04-24T05:49:22;11.40;84.00
23591;DHT22;11973;52.098;7.582;2023-04-24T05:51:49;11.40;84.00
23591;DHT22;11973;52.098;7.582;2023-04-24T05:54:16;11.40;83.80
23591;DHT22;11973;52.098;7.582;2023-04-24T05:56:42;11.40;83.80
23591;DHT22;11973;52.098;7.582;2023-04-24T05:59:10;11.40;83.80
23591;DHT22;11973;52.098;7.582;2023-04-24T06:01:36;11.40;83.80
23591;DHT22;11973;52.098;7.582;2023-04-24T06:04:09;11.40;83.80
23591;DHT22;11973;52.098;7.582;2023-04-24T06:06:35;11.50;84.70
23591;DHT22;11973;52.098;7.582;2023-04-24T06:09:02;11.30;83.80
23591;DHT22;11973;52.098;7.582;2023-04-24T06:11:28;11.30;83.80
23591;DHT22;11973;52.098;7.582;2023-04-24T06:13:55;11.30;83.90
23591;DHT22;11973;52.098;7.582;2023-04-24T06:16:44;11.30;83.80
23591;DHT22;11973;52.098;7.582;2023-04-24T06:19:30;11.30;83.90
23591;DHT22;11973;52.098;7.582;2023-04-24T06:21:56;11.30;83.90
23591;DHT22;11973;52.098;7.582;2023-04-24T06:24:21;11.30;83.90
23591;DHT22;11973;52.098;7.582;2023-04-24T06:26:47;11.30;83.80
23591;DHT22;11973;52.098;7.582;2023-04-24T06:29:13;11.30;83.80
23591;DHT22;11973;52.098;7.582;2023-04-24T06:31:39;11.40;83.80
23591;DHT22;11973;52.098;7.582;2023-04-24T06:34:04;11.50;83.90
23591;DHT22;11973;52.098;7.582;2023-04-24T06:36:32;11.50;83.70
23591;DHT22;11973;52.098;7.582;2023-04-24T06:39:00;11.60;83.70
23591;DHT22;11973;52.098;7.582;2023-04-24T06:41:25;11.60;83.70
23591;DHT22;11973;52.098;7.582;2023-04-24T06:43:51;11.70;83.70
23591;DHT22;11973;52.098;7.582;2023-04-24T06:46:17;11.80;83.70
23591;DHT22;11973;52.098;7.582;2023-04-24T06:48:43;11.90;83.70
23591;DHT22;11973;52.098;7.582;2023-04-24T06:51:09;12.10;83.70
23591;DHT22;11973;52.098;7.582;2023-04-24T06:53:35;12.00;83.40
23591;DHT22;11973;52.098;7.582;2023-04-24T06:56:01;12.00;83.10
23591;DHT22;11973;52.098;7.582;2023-04-24T06:58:26;12.10;83.10
23591;DHT22;11973;52.098;7.582;2023-04-24T07:00:52;12.10;83.10
23591;DHT22;11973;52.098;7.582;2023-04-24T07:03:18;12.20;83.10
23591;DHT22;11973;52.098;7.582;2023-04-24T07:05:43;12.30;83.10
23591;DHT22;11973;52.098;7.582;2023-04-24T07:08:09;12.50;83.30
23591;DHT22;11973;52.098;7.582;2023-04-24T07:10:36;12.40;83.10
23591;DHT22;11973;52.098;7.582;2023-04-24T07:13:02;12.40;83.00
23591;DHT22;11973;52.098;7.582;2023-04-24T07:15:28;12.50;82.80
23591;DHT22;11973;52.098;7.582;2023-04-24T07:17:54;12.50;82.60
23591;DHT22;11973;52.098;7.582;2023-04-24T07:20:19;12.60;82.60
23591;DHT22;11973;52.098;7.582;2023-04-24T07:22:45;12.40;82.40
23591;DHT22;11973;52.098;7.582;2023-04-24T07:25:11;12.50;82.40
23591;DHT22;11973;52.098;7.582;2023-04-24T07:27:37;12.30;82.20
23591;DHT22;11973;52.098;7.582;2023-04-24T07:30:04;12.20;82.90
23591;DHT22;11973;52.098;7.582;2023-04-24T07:32:30;12.20;82.20
23591;DHT22;11973;52.098;7.582;2023-04-24T07:34:56;12.20;82.30
23591;DHT22;11973;52.098;7.582;2023-04-24T07:37:22;12.10;82.10
23591;DHT22;11973;52.098;7.582;2023-04-24T07:39:48;12.10;82.10
23591;DHT22;11973;52.098;7.582;2023-04-24T07:42:14;12.10;82.30
23591;DHT22;11973;52.098;7.582;2023-04-24T07:44:40;12.00;82.20
23591;DHT22;11973;52.098;7.582;2023-04-24T07:47:05;12.00;82.20
23591;DHT22;11973;52.098;7.582;2023-04-24T07:49:31;11.90;82.10
23591;DHT22;11973;52.098;7.582;2023-04-24T07:51:59;12.00;82.40
23591;DHT22;11973;52.098;7.582;2023-04-24T07:54:27;12.10;82.70
23591;DHT22;11973;52.098;7.582;2023-04-24T07:56:56;12.10;82.70
23591;DHT22;11973;52.098;7.582;2023-04-24T07:59:22;12.30;83.60
23591;DHT22;11973;52.098;7.582;2023-04-24T08:01:47;12.20;82.60
23591;DHT22;11973;52.098;7.582;2023-04-24T08:04:14;12.10;83.20
23591;DHT22;11973;52.098;7.582;2023-04-24T08:06:40;12.10;82.40
23591;DHT22;11973;52.098;7.582;2023-04-24T08:09:06;12.10;82.50
23591;DHT22;11973;52.098;7.582;2023-04-24T08:11:31;12.10;82.60
23591;DHT22;11973;52.098;7.582;2023-04-24T08:13:58;12.00;82.40
23591;DHT22;11973;52.098;7.582;2023-04-24T08:16:24;12.00;82.40
23591;DHT22;11973;52.098;7.582;2023-04-24T08:18:50;11.90;82.40
23591;DHT22;11973;52.098;7.582;2023-04-24T08:21:16;11.90;82.40
23591;DHT22;11973;52.098;7.582;2023-04-24T08:23:44;11.90;83.10
23591;DHT22;11973;52.098;7.582;2023-04-24T08:26:11;11.90;82.40
23591;DHT22;11973;52.098;7.582;2023-04-24T08:28:37;11.80;82.30
23591;DHT22;11973;52.098;7.582;2023-04-24T08:31:03;11.80;82.40
23591;DHT22;11973;52.098;7.582;2023-04-24T08:33:29;11.80;82.50
23591;DHT22;11973;52.098;7.582;2023-04-24T08:36:06;11.80;82.50
23591;DHT22;11973;52.098;7.582;2023-04-24T08:38:33;11.70;82.40
23591;DHT22;11973;52.098;7.582;2023-04-24T08:41:00;11.70;82.50
23591;DHT22;11973;52.098;7.582;2023-04-24T08:43:27;11.70;82.60
23591;DHT22;11973;52.098;7.582;2023-04-24T08:45:56;11.70;82.70
23591;DHT22;11973;52.098;7.582;2023-04-24T08:48:25;11.60;82.70
23591;DHT22;11973;52.098;7.582;2023-04-24T08:50:51;11.70;82.80
23591;DHT22;11973;52.098;7.582;2023-04-24T08:53:18;11.70;83.10
23591;DHT22;11973;52.098;7.582;2023-04-24T08:55:47;11.80;83.40
23591;DHT22;11973;52.098;7.582;2023-04-24T08:58:15;11.90;83.40
23591;DHT22;11973;52.098;7.582;2023-04-24T09:00:41;11.90;83.30
23591;DHT22;11973;52.098;7.582;2023-04-24T09:03:16;12.10;83.50
23591;DHT22;11973;52.098;7.582;2023-04-24T09:05:43;12.00;84.00
23591;DHT22;11973;52.098;7.582;2023-04-24T09:08:13;12.00;83.20
23591;DHT22;11973;52.098;7.582;2023-04-24T09:10:40;12.00;83.00
23591;DHT22;11973;52.098;7.582;2023-04-24T09:13:06;11.90;82.80
23591;DHT22;11973;52.098;7.582;2023-04-24T09:15:34;11.80;82.60
23591;DHT22;11973;52.098;7.582;2023-04-24T09:18:01;11.90;82.80
23591;DHT22;11973;52.098;7.582;2023-04-24T09:20:26;11.70;82.90
23591;DHT22;11973;52.098;7.582;2023-04-24T09:22:57;11.60;83.10
23591;DHT22;11973;52.098;7.582;2023-04-24T09:25:31;11.50;83.40
23591;DHT22;11973;52.098;7.582;2023-04-24T09:28:01;11.50;83.50
23591;DHT22;11973;52.098;7.582;2023-04-24T09:30:28;11.50;83.70
23591;DHT22;11973;52.098;7.582;2023-04-24T09:33:13;11.50;83.90
23591;DHT22;11973;52.098;7.582;2023-04-24T09:35:49;11.50;84.00
23591;DHT22;11973;52.098;7.582;2023-04-24T09:38:15;11.50;84.00
23591;DHT22;11973;52.098;7.582;2023-04-24T09:40:41;11.40;83.80
23591;DHT22;11973;52.098;7.582;2023-04-24T09:43:10;11.30;84.00
23591;DHT22;11973;52.098;7.582;2023-04-24T09:45:37;11.30;84.10
23591;DHT22;11973;52.098;7.582;2023-04-24T09:48:04;11.20;84.20
23591;DHT22;11973;52.098;7.582;2023-04-24T09:50:32;11.10;84.20
23591;DHT22;11973;52.098;7.582;2023-04-24T09:53:02;11.10;84.40
23591;DHT22;11973;52.098;7.582;2023-04-24T09:55:29;11.10;84.40
23591;DHT22;11973;52.098;7.582;2023-04-24T09:57:57;11.10;84.60
23591;DHT22;11973;52.098;7.582;2023-04-24T10:00:23;10.80;84.40
23591;DHT22;11973;52.098;7.582;2023-04-24T10:02:54;10.70;84.50
23591;DHT22;11973;52.098;7.582;2023-04-24T10:05:23;10.70;84.80
23591;DHT22;11973;52.098;7.582;2023-04-24T10:07:50;10.60;84.90
23591;DHT22;11973;52.098;7.582;2023-04-24T10:10:16;10.50;85.10
23591;DHT22;11973;52.098;7.582;2023-04-24T10:12:42;10.40;85.20
23591;DHT22;11973;52.098;7.582;2023-04-24T10:15:12;10.50;85.60
23591;DHT22;11973;52.098;7.582;2023-04-24T10:17:39;10.40;85.70
23591;DHT22;11973;52.098;7.582;2023-04-24T10:20:06;10.30;85.80
23591;DHT22;11973;52.098;7.582;2023-04-24T10:22:32;10.30;85.90
23591;DHT22;11973;52.098;7.582;2023-04-24T10:24:59;10.30;86.10
23591;DHT22;11973;52.098;7.582;2023-04-24T10:27:26;10.20;86.20
23591;DHT22;11973;52.098;7.582;2023-04-24T10:29:53;10.40;86.50
23591;DHT22;11973;52.098;7.582;2023-04-24T10:32:19;10.20;86.40
23591;DHT22;11973;52.098;7.582;2023-04-24T10:34:45;10.40;86.80
23591;DHT22;11973;52.098;7.582;2023-04-24T10:37:10;10.40;87.00
23591;DHT22;11973;52.098;7.582;2023-04-24T10:39:36;10.30;87.10
23591;DHT22;11973;52.098;7.582;2023-04-24T10:42:16;10.40;87.30
23591;DHT22;11973;52.098;7.582;2023-04-24T10:44:42;10.40;87.40
23591;DHT22;11973;52.098;7.582;2023-04-24T10:47:14;10.60;87.60
23591;DHT22;11973;52.098;7.582;2023-04-24T10:49:40;10.50;87.50
23591;DHT22;11973;52.098;7.582;2023-04-24T10:52:09;10.40;87.30
23591;DHT22;11973;52.098;7.582;2023-04-24T10:54:36;10.50;87.40
23591;DHT22;11973;52.098;7.582;2023-04-24T11:00:09;10.30;87.20
23591;DHT22;11973;52.098;7.582;2023-04-24T11:02:38;10.20;87.40
23591;DHT22;11973;52.098;7.582;2023-04-24T11:05:06;10.10;87.60
23591;DHT22;11973;52.098;7.582;2023-04-24T11:11:15;10.00;88.80
23591;DHT22;11973;52.098;7.582;2023-04-24T11:16:33;9.90;90.70
23591;DHT22;11973;52.098;7.582;2023-04-24T11:19:17;9.90;90.90
23591;DHT22;11973;52.098;7.582;2023-04-24T11:24:28;10.00;90.90
23591;DHT22;11973;52.098;7.582;2023-04-24T11:26:57;9.90;91.60
23591;DHT22;11973;52.098;7.582;2023-04-24T11:29:45;9.90;91.70
23591;DHT22;11973;52.098;7.582;2023-04-24T11:34:49;10.10;91.60
23591;DHT22;11973;52.098;7.582;2023-04-24T11:37:16;10.00;91.60
23591;DHT22;11973;52.098;7.582;2023-04-24T11:39:42;10.20;91.80
23591;DHT22;11973;52.098;7.582;2023-04-24T11:42:09;10.10;91.80
23591;DHT22;11973;52.098;7.582;2023-04-24T11:44:35;10.10;91.90
23591;DHT22;11973;52.098;7.582;2023-04-24T11:47:06;10.20;92.00
23591;DHT22;11973;52.098;7.582;2023-04-24T11:49:32;10.10;92.00
23591;DHT22;11973;52.098;7.582;2023-04-24T11:52:00;10.10;92.10
23591;DHT22;11973;52.098;7.582;2023-04-24T11:54:27;10.20;92.20
23591;DHT22;11973;52.098;7.582;2023-04-24T11:56:52;10.10;92.40
23591;DHT22;11973;52.098;7.582;2023-04-24T11:59:18;10.10;92.50
23591;DHT22;11973;52.098;7.582;2023-04-24T12:01:45;10.00;92.50
23591;DHT22;11973;52.098;7.582;2023-04-24T12:04:12;10.00;92.60
23591;DHT22;11973;52.098;7.582;2023-04-24T12:06:38;10.10;92.70
23591;DHT22;11973;52.098;7.582;2023-04-24T12:09:03;10.20;92.80
23591;DHT22;11973;52.098;7.582;2023-04-24T12:11:29;10.20;92.80
23591;DHT22;11973;52.098;7.582;2023-04-24T12:13:55;10.20;92.90
23591;DHT22;11973;52.098;7.582;2023-04-24T12:16:21;10.20;93.20
23591;DHT22;11973;52.098;7.582;2023-04-24T12:18:47;10.10;92.80
23591;DHT22;11973;52.098;7.582;2023-04-24T12:21:22;10.10;92.90
23591;DHT22;11973;52.098;7.582;2023-04-24T12:23:54;9.90;93.40
23591;DHT22;11973;52.098;7.582;2023-04-24T12:26:20;9.90;93.50
23591;DHT22;11973;52.098;7.582;2023-04-24T12:28:49;9.90;93.50
23591;DHT22;11973;52.098;7.582;2023-04-24T12:31:16;9.90;93.60
23591;DHT22;11973;52.098;7.582;2023-04-24T12:33:42;9.60;93.60
23591;DHT22;11973;52.098;7.582;2023-04-24T12:36:12;9.60;93.70
23591;DHT22;11973;52.098;7.582;2023-04-24T12:38:38;9.60;93.80
23591;DHT22;11973;52.098;7.582;2023-04-24T12:41:12;9.70;94.00
23591;DHT22;11973;52.098;7.582;2023-04-24T12:43:54;9.80;94.10
23591;DHT22;11973;52.098;7.582;2023-04-24T12:46:20;9.70;94.00
23591;DHT22;11973;52.098;7.582;2023-04-24T12:48:46;9.90;94.20
23591;DHT22;11973;52.098;7.582;2023-04-24T12:51:12;9.70;94.10
23591;DHT22;11973;52.098;7.582;2023-04-24T12:53:37;9.80;94.20
23591;DHT22;11973;52.098;7.582;2023-04-24T12:56:03;9.80;94.20
23591;DHT22;11973;52.098;7.582;2023-04-24T12:58:29;9.90;94.30
23591;DHT22;11973;52.098;7.582;2023-04-24T13:00:55;10.00;93.90
23591;DHT22;11973;52.098;7.582;2023-04-24T13:03:20;10.00;93.90
23591;DHT22;11973;52.098;7.582;2023-04-24T13:05:47;10.00;93.90
23591;DHT22;11973;52.098;7.582;2023-04-24T13:08:13;10.00;93.80
23591;DHT22;11973;52.098;7.582;2023-04-24T13:10:39;10.00;93.80
23591;DHT22;11973;52.098;7.582;2023-04-24T13:13:06;10.00;93.80
23591;DHT22;11973;52.098;7.582;2023-04-24T13:15:31;10.10;93.90
23591;DHT22;11973;52.098;7.582;2023-04-24T13:17:57;10.10;94.00
23591;DHT22;11973;52.098;7.582;2023-04-24T13:20:23;10.10;94.00
23591;DHT22;11973;52.098;7.582;2023-04-24T13:22:49;10.00;94.00
23591;DHT22;11973;52.098;7.582;2023-04-24T13:25:14;10.10;94.10
23591;DHT22;11973;52.098;7.582;2023-04-24T13:27:42;10.00;94.50
23591;DHT22;11973;52.098;7.582;2023-04-24T13:30:08;10.00;94.20
23591;DHT22;11973;52.098;7.582;2023-04-24T13:32:34;9.90;94.80
23591;DHT22;11973;52.098;7.582;2023-04-24T13:35:00;9.90;94.80
23591;DHT22;11973;52.098;7.582;2023-04-24T13:37:26;10.10;94.40
23591;DHT22;11973;52.098;7.582;2023-04-24T13:39:52;9.80;94.90
23591;DHT22;11973;52.098;7.582;2023-04-24T13:42:18;9.80;95.00
23591;DHT22;11973;52.098;7.582;2023-04-24T13:44:44;9.80;95.00
23591;DHT22;11973;52.098;7.582;2023-04-24T13:47:10;9.80;95.00
23591;DHT22;11973;52.098;7.582;2023-04-24T13:49:36;9.90;95.10
23591;DHT22;11973;52.098;7.582;2023-04-24T13:52:02;9.90;95.10
23591;DHT22;11973;52.098;7.582;2023-04-24T13:54:27;10.00;94.60
23591;DHT22;11973;52.098;7.582;2023-04-24T13:56:55;10.30;94.70
23591;DHT22;11973;52.098;7.582;2023-04-24T13:59:24;10.20;94.60
23591;DHT22;11973;52.098;7.582;2023-04-24T14:01:50;10.20;94.60
23591;DHT22;11973;52.098;7.582;2023-04-24T14:04:16;10.20;94.50
23591;DHT22;11973;52.098;7.582;2023-04-24T14:06:42;10.30;94.60
23591;DHT22;11973;52.098;7.582;2023-04-24T14:09:08;10.30;94.50
23591;DHT22;11973;52.098;7.582;2023-04-24T14:11:34;10.30;94.40
23591;DHT22;11973;52.098;7.582;2023-04-24T14:14:00;10.40;94.40
23591;DHT22;11973;52.098;7.582;2023-04-24T14:16:26;10.30;94.30
23591;DHT22;11973;52.098;7.582;2023-04-24T14:18:52;10.20;94.30
23591;DHT22;11973;52.098;7.582;2023-04-24T14:21:17;10.20;94.30
23591;DHT22;11973;52.098;7.582;2023-04-24T14:23:43;10.20;94.40
23591;DHT22;11973;52.098;7.582;2023-04-24T14:26:09;10.20;94.40
23591;DHT22;11973;52.098;7.582;2023-04-24T14:28:35;10.20;94.40
23591;DHT22;11973;52.098;7.582;2023-04-24T14:31:01;10.30;94.40
23591;DHT22;11973;52.098;7.582;2023-04-24T14:33:27;10.30;94.40
23591;DHT22;11973;52.098;7.582;2023-04-24T14:35:52;10.40;94.50
23591;DHT22;11973;52.098;7.582;2023-04-24T14:38:18;10.70;94.90
23591;DHT22;11973;52.098;7.582;2023-04-24T14:40:44;10.60;94.40
23591;DHT22;11973;52.098;7.582;2023-04-24T14:43:09;10.60;94.40
23591;DHT22;11973;52.098;7.582;2023-04-24T14:45:36;10.60;94.30
23591;DHT22;11973;52.098;7.582;2023-04-24T14:48:02;10.50;94.20
23591;DHT22;11973;52.098;7.582;2023-04-24T14:50:28;10.50;94.30
23591;DHT22;11973;52.098;7.582;2023-04-24T14:52:55;10.50;94.10
23591;DHT22;11973;52.098;7.582;2023-04-24T14:55:24;10.40;93.90
23591;DHT22;11973;52.098;7.582;2023-04-24T14:57:50;10.40;94.00
23591;DHT22;11973;52.098;7.582;2023-04-24T15:00:16;10.50;94.10
23591;DHT22;11973;52.098;7.582;2023-04-24T15:02:42;10.50;94.20
23591;DHT22;11973;52.098;7.582;2023-04-24T15:05:10;10.60;94.30
23591;DHT22;11973;52.098;7.582;2023-04-24T15:07:35;10.70;94.60
23591;DHT22;11973;52.098;7.582;2023-04-24T15:10:02;10.80;94.40
23591;DHT22;11973;52.098;7.582;2023-04-24T15:12:28;10.90;94.40
23591;DHT22;11973;52.098;7.582;2023-04-24T15:14:54;10.90;94.40
23591;DHT22;11973;52.098;7.582;2023-04-24T15:17:20;10.90;94.30
23591;DHT22;11973;52.098;7.582;2023-04-24T15:19:46;11.00;94.30
23591;DHT22;11973;52.098;7.582;2023-04-24T15:22:11;11.00;94.30
23591;DHT22;11973;52.098;7.582;2023-04-24T15:24:37;10.80;94.20
23591;DHT22;11973;52.098;7.582;2023-04-24T15:27:03;10.80;94.30
23591;DHT22;11973;52.098;7.582;2023-04-24T15:29:29;10.70;94.40
23591;DHT22;11973;52.098;7.582;2023-04-24T15:31:54;10.80;94.30
23591;DHT22;11973;52.098;7.582;2023-04-24T15:34:20;10.60;94.00
23591;DHT22;11973;52.098;7.582;2023-04-24T15:36:46;10.40;94.10
23591;DHT22;11973;52.098;7.582;2023-04-24T15:39:12;10.30;93.70
23591;DHT22;11973;52.098;7.582;2023-04-24T15:41:38;10.20;93.60
23591;DHT22;11973;52.098;7.582;2023-04-24T15:44:04;10.00;93.40
23591;DHT22;11973;52.098;7.582;2023-04-24T15:46:29;10.00;93.70
23591;DHT22;11973;52.098;7.582;2023-04-24T15:48:55;9.90;94.50
23591;DHT22;11973;52.098;7.582;2023-04-24T15:51:21;10.30;94.70
23591;DHT22;11973;52.098;7.582;2023-04-24T15:53:47;10.60;96.00
23591;DHT22;11973;52.098;7.582;2023-04-24T15:56:13;11.30;96.20
23591;DHT22;11973;52.098;7.582;2023-04-24T15:58:39;11.50;95.40
23591;DHT22;11973;52.098;7.582;2023-04-24T16:01:05;11.80;95.00
23591;DHT22;11973;52.098;7.582;2023-04-24T16:03:31;11.70;94.80
23591;DHT22;11973;52.098;7.582;2023-04-24T16:05:56;11.90;95.30
23591;DHT22;11973;52.098;7.582;2023-04-24T16:08:22;12.20;95.40
23591;DHT22;11973;52.098;7.582;2023-04-24T16:10:48;12.70;95.80
23591;DHT22;11973;52.098;7.582;2023-04-24T16:13:17;13.50;96.80
23591;DHT22;11973;52.098;7.582;2023-04-24T16:15:45;14.30;96.20
23591;DHT22;11973;52.098;7.582;2023-04-24T16:18:11;14.50;95.10
23591;DHT22;11973;52.098;7.582;2023-04-24T16:20:37;14.40;94.00
23591;DHT22;11973;52.098;7.582;2023-04-24T16:23:03;14.00;93.50
23591;DHT22;11973;52.098;7.582;2023-04-24T16:25:28;13.70;93.50
23591;DHT22;11973;52.098;7.582;2023-04-24T16:27:54;13.30;93.50
23591;DHT22;11973;52.098;7.582;2023-04-24T16:30:21;13.00;93.50
23591;DHT22;11973;52.098;7.582;2023-04-24T16:32:47;12.70;93.50
23591;DHT22;11973;52.098;7.582;2023-04-24T16:35:12;12.50;93.80
23591;DHT22;11973;52.098;7.582;2023-04-24T16:37:38;12.30;93.90
23591;DHT22;11973;52.098;7.582;2023-04-24T16:40:04;12.10;94.00
23591;DHT22;11973;52.098;7.582;2023-04-24T16:42:37;12.00;94.10
23591;DHT22;11973;52.098;7.582;2023-04-24T16:45:04;11.80;94.10
23591;DHT22;11973;52.098;7.582;2023-04-24T16:47:31;11.70;94.20
23591;DHT22;11973;52.098;7.582;2023-04-24T16:49:57;11.60;94.20
23591;DHT22;11973;52.098;7.582;2023-04-24T16:52:23;11.60;94.30
23591;DHT22;11973;52.098;7.582;2023-04-24T16:54:48;11.80;94.50
23591;DHT22;11973;52.098;7.582;2023-04-24T16:57:14;12.10;94.50
23591;DHT22;11973;52.098;7.582;2023-04-24T16:59:40;12.20;94.40
23591;DHT22;11973;52.098;7.582;2023-04-24T17:02:06;12.20;94.30
23591;DHT22;11973;52.098;7.582;2023-04-24T17:04:32;12.70;95.60
23591;DHT22;11973;52.098;7.582;2023-04-24T17:07:00;13.20;95.10
23591;DHT22;11973;52.098;7.582;2023-04-24T17:09:26;13.70;94.90
23591;DHT22;11973;52.098;7.582;2023-04-24T17:11:52;14.00;94.50
23591;DHT22;11973;52.098;7.582;2023-04-24T17:14:17;14.20;94.40
23591;DHT22;11973;52.098;7.582;2023-04-24T17:16:43;14.30;94.20
23591;DHT22;11973;52.098;7.582;2023-04-24T17:19:10;14.30;93.80
23591;DHT22;11973;52.098;7.582;2023-04-24T17:21:36;14.20;93.70
23591;DHT22;11973;52.098;7.582;2023-04-24T17:24:02;14.10;93.60
23591;DHT22;11973;52.098;7.582;2023-04-24T17:26:28;13.90;93.40
23591;DHT22;11973;52.098;7.582;2023-04-24T17:28:56;13.60;93.20
23591;DHT22;11973;52.098;7.582;2023-04-24T17:31:23;13.30;93.10
23591;DHT22;11973;52.098;7.582;2023-04-24T17:33:49;13.10;93.40
23591;DHT22;11973;52.098;7.582;2023-04-24T17:36:16;12.90;93.10
23591;DHT22;11973;52.098;7.582;2023-04-24T17:38:41;12.70;93.20
23591;DHT22;11973;52.098;7.582;2023-04-24T17:41:07;12.50;93.10
23591;DHT22;11973;52.098;7.582;2023-04-24T17:43:33;12.30;92.90
23591;DHT22;11973;52.098;7.582;2023-04-24T17:45:59;12.10;92.80
23591;DHT22;11973;52.098;7.582;2023-04-24T17:48:25;11.90;92.90
23591;DHT22;11973;52.098;7.582;2023-04-24T17:50:51;11.80;93.20
23591;DHT22;11973;52.098;7.582;2023-04-24T17:53:18;11.60;92.90
23591;DHT22;11973;52.098;7.582;2023-04-24T17:55:45;11.40;92.90
23591;DHT22;11973;52.098;7.582;2023-04-24T17:58:11;11.30;93.00
23591;DHT22;11973;52.098;7.582;2023-04-24T18:00:37;11.20;93.10
23591;DHT22;11973;52.098;7.582;2023-04-24T18:03:03;11.20;93.10
23591;DHT22;11973;52.098;7.582;2023-04-24T18:05:31;11.10;93.10
23591;DHT22;11973;52.098;7.582;2023-04-24T18:07:57;11.00;93.00
23591;DHT22;11973;52.098;7.582;2023-04-24T18:10:25;10.90;92.70
23591;DHT22;11973;52.098;7.582;2023-04-24T18:12:51;10.80;92.70
23591;DHT22;11973;52.098;7.582;2023-04-24T18:15:17;10.80;92.70
23591;DHT22;11973;52.098;7.582;2023-04-24T18:17:44;10.60;92.60
23591;DHT22;11973;52.098;7.582;2023-04-24T18:20:14;10.40;92.40
23591;DHT22;11973;52.098;7.582;2023-04-24T18:22:41;10.30;92.40
23591;DHT22;11973;52.098;7.582;2023-04-24T18:25:07;10.20;92.40
23591;DHT22;11973;52.098;7.582;2023-04-24T18:27:34;10.10;92.40
23591;DHT22;11973;52.098;7.582;2023-04-24T18:30:00;9.90;93.00
23591;DHT22;11973;52.098;7.582;2023-04-24T18:32:27;9.90;93.10
23591;DHT22;11973;52.098;7.582;2023-04-24T18:34:53;9.80;93.10
23591;DHT22;11973;52.098;7.582;2023-04-24T18:37:18;9.80;93.20
23591;DHT22;11973;52.098;7.582;2023-04-24T18:39:44;9.70;93.30
23591;DHT22;11973;52.098;7.582;2023-04-24T18:42:10;9.70;93.30
23591;DHT22;11973;52.098;7.582;2023-04-24T18:44:36;9.60;93.20
23591;DHT22;11973;52.098;7.582;2023-04-24T18:47:06;9.60;93.20
23591;DHT22;11973;52.098;7.582;2023-04-24T18:49:32;9.60;93.10
23591;DHT22;11973;52.098;7.582;2023-04-24T18:51:58;9.50;93.00
23591;DHT22;11973;52.098;7.582;2023-04-24T18:54:24;9.40;92.90
23591;DHT22;11973;52.098;7.582;2023-04-24T18:56:50;9.40;93.00
23591;DHT22;11973;52.098;7.582;2023-04-24T18:59:18;9.30;93.00
23591;DHT22;11973;52.098;7.582;2023-04-24T19:01:44;9.20;93.00
23591;DHT22;11973;52.098;7.582;2023-04-24T19:04:10;9.10;92.90
23591;DHT22;11973;52.098;7.582;2023-04-24T19:06:36;9.10;93.00
23591;DHT22;11973;52.098;7.582;2023-04-24T19:09:02;9.00;92.90
23591;DHT22;11973;52.098;7.582;2023-04-24T19:11:28;9.00;92.90
23591;DHT22;11973;52.098;7.582;2023-04-24T19:13:54;8.90;93.00
23591;DHT22;11973;52.098;7.582;2023-04-24T19:16:21;8.90;93.00
23591;DHT22;11973;52.098;7.582;2023-04-24T19:18:47;8.80;93.00
23591;DHT22;11973;52.098;7.582;2023-04-24T19:21:13;8.80;93.00
23591;DHT22;11973;52.098;7.582;2023-04-24T19:23:39;8.70;93.00
23591;DHT22;11973;52.098;7.582;2023-04-24T19:26:06;8.60;93.00
23591;DHT22;11973;52.098;7.582;2023-04-24T19:28:32;8.90;93.20
23591;DHT22;11973;52.098;7.582;2023-04-24T19:30:58;8.60;93.20
23591;DHT22;11973;52.098;7.582;2023-04-24T19:33:25;8.60;93.60